Time;durP1;ratioP1;P1;durP2;ratioP2;P2;SDS_P1;SDS_P2;PMS_P1;PMS_P2;Temp;Humidity;BMP_temperature;BMP_pressure;BME280_temperature;BME280_humidity;BME280_pressure;Samples;Min_cycle;Max_cycle;Signal;HPM_P1;HPM_P2
2021/07/16 00:02:22;;;;;;;;;10.25;9.00;;;;;24.66;47.10;101314.84;4923648;28;61547;-71
2021/07/16 00:04:48;;;;;;;;;11.00;10.00;;;;;24.68;47.46;101314.81;4924080;28;48312;-71
2021/07/16 00:07:13;;;;;;;;;10.25;10.00;;;;;24.70;47.39;101324.50;4924294;28;47277;-71
2021/07/16 00:09:39;;;;;;;;;11.75;10.00;;;;;24.73;47.43;101320.81;4891183;28;45543;-71
2021/07/16 00:12:05;;;;;;;;;12.50;10.50;;;;;24.69;47.72;101317.41;4922787;28;47795;-71
2021/07/16 00:14:32;;;;;;;;;13.50;12.00;;;;;24.69;47.45;101313.88;4906844;28;45522;-71
2021/07/16 00:16:58;;;;;;;;;13.00;12.00;;;;;24.67;47.07;101319.28;4923135;28;45243;-72
2021/07/16 00:19:23;;;;;;;;;11.25;10.25;;;;;24.67;47.55;101307.72;4938596;28;45544;-71
2021/07/16 00:21:48;;;;;;;;;12.25;12.00;;;;;24.64;47.86;101308.72;4938151;28;69270;-71
2021/07/16 00:24:14;;;;;;;;;13.25;10.25;;;;;24.66;47.48;101301.50;4922574;28;45273;-71
2021/07/16 00:26:39;;;;;;;;;12.00;11.25;;;;;24.66;47.11;101317.53;4922946;28;45627;-72
2021/07/16 00:29:05;;;;;;;;;12.75;10.50;;;;;24.64;47.51;101318.53;4922515;28;45482;-72
2021/07/16 00:31:31;;;;;;;;;11.25;11.25;;;;;24.65;47.39;101314.91;4922524;28;56844;-72
2021/07/16 00:33:56;;;;;;;;;13.50;11.75;;;;;24.64;47.31;101318.53;4923671;28;45229;-72
2021/07/16 00:36:21;;;;;;;;;12.00;9.75;;;;;24.59;47.45;101305.38;4924177;28;45421;-72
2021/07/16 00:38:47;;;;;;;;;14.00;11.50;;;;;24.58;46.90;101314.28;4923149;28;59565;-72
2021/07/16 00:41:12;;;;;;;;;13.00;12.25;;;;;24.45;47.22;101294.38;4923694;28;46096;-70
2021/07/16 00:43:38;;;;;;;;;12.25;12.25;;;;;24.46;47.34;101298.78;4922305;28;45300;-72
2021/07/16 00:46:03;;;;;;;;;11.50;11.50;;;;;24.55;47.47;101310.88;4922824;28;45517;-72
2021/07/16 00:48:28;;;;;;;;;10.75;10.75;;;;;24.61;47.56;101324.88;4890309;28;52969;-72
2021/07/16 00:50:54;;;;;;;;;12.00;10.75;;;;;24.59;47.79;101315.19;4926154;28;46007;-72
2021/07/16 00:53:19;;;;;;;;;12.00;12.00;;;;;24.61;48.21;101324.88;4924002;28;45362;-72
2021/07/16 00:55:45;;;;;;;;;10.50;10.50;;;;;24.61;48.01;101318.66;4923115;28;51817;-72
2021/07/16 00:58:11;;;;;;;;;12.25;10.25;;;;;24.63;47.78;101322.13;4890456;28;45492;-72
2021/07/16 01:00:37;;;;;;;;;14.00;10.75;;;;;24.64;47.80;101322.06;4922292;28;45277;-72
2021/07/16 01:03:02;;;;;;;;;11.00;10.00;;;;;24.62;47.52;101323.94;4922172;28;45312;-72
2021/07/16 01:05:28;;;;;;;;;11.75;11.75;;;;;24.60;48.03;101328.47;4923609;28;45285;-72
2021/07/16 01:07:54;;;;;;;;;13.50;12.75;;;;;24.60;47.70;101328.47;4923395;28;45188;-72
2021/07/16 01:10:20;;;;;;;;;12.75;11.50;;;;;24.59;48.33;101317.84;4922730;28;63960;-72
2021/07/16 01:12:51;;;;;;;;;12.50;12.50;;;;;24.59;47.76;101316.06;4921892;28;45446;-72
2021/07/16 01:15:16;;;;;;;;;12.00;12.00;;;;;24.61;48.10;101321.31;4923554;28;45292;-72
2021/07/16 01:17:42;;;;;;;;;12.50;11.50;;;;;24.60;48.18;101316.91;4923163;28;45228;-72
2021/07/16 01:20:09;;;;;;;;;10.00;9.25;;;;;24.56;47.61;101315.28;4922006;28;45321;-72
2021/07/16 01:22:36;;;;;;;;;8.25;8.25;;;;;24.53;48.35;101318.97;4923078;28;45266;-72
2021/07/16 01:25:04;;;;;;;;;11.75;10.25;;;;;24.51;48.08;101324.34;4923364;28;45401;-72
2021/07/16 01:27:30;;;;;;;;;12.25;11.00;;;;;24.46;47.90;101317.44;4922765;28;45221;-72
2021/07/16 01:29:55;;;;;;;;;10.75;10.25;;;;;24.49;48.05;101312.84;4905914;28;45450;-72
2021/07/16 01:32:21;;;;;;;;;12.50;11.00;;;;;24.42;48.76;101313.19;4905841;28;45507;-72
2021/07/16 01:34:46;;;;;;;;;11.00;9.75;;;;;24.50;48.41;101327.09;4889662;28;60679;-72
2021/07/16 01:37:12;;;;;;;;;9.75;8.50;;;;;24.49;48.59;101320.00;4921068;28;64656;-72
2021/07/16 01:39:37;;;;;;;;;10.00;9.75;;;;;24.50;47.87;101322.63;4905121;28;70470;-72
2021/07/16 01:42:05;;;;;;;;;9.75;9.75;;;;;24.49;48.07;101330.66;4889735;28;45453;-72
2021/07/16 01:44:30;;;;;;;;;13.00;12.00;;;;;24.46;48.21;101320.13;4905828;28;45538;-72
2021/07/16 01:46:56;;;;;;;;;12.50;9.50;;;;;24.45;48.25;101331.72;4921593;28;45334;-72
2021/07/16 01:49:21;;;;;;;;;11.25;9.50;;;;;24.46;48.37;101322.78;4905775;28;45364;-72
2021/07/16 01:51:46;;;;;;;;;11.00;10.75;;;;;24.42;48.21;101324.72;4909870;28;59207;-71
2021/07/16 01:54:12;;;;;;;;;10.25;8.50;;;;;24.37;48.17;101323.16;4921689;28;45571;-72
2021/07/16 01:56:37;;;;;;;;;13.50;10.00;;;;;24.36;47.75;101324.94;4918161;28;65724;-72
2021/07/16 01:59:03;;;;;;;;;11.25;10.25;;;;;24.36;48.42;101324.09;4936824;28;59664;-72
2021/07/16 02:01:28;;;;;;;;;11.50;11.50;;;;;24.38;48.29;101324.88;4921244;28;45345;-72
2021/07/16 02:03:54;;;;;;;;;9.75;9.75;;;;;24.37;48.18;101324.00;4921754;28;45878;-71
2021/07/16 02:06:19;;;;;;;;;11.00;9.75;;;;;24.33;48.33;101318.88;4921361;28;45368;-71
2021/07/16 02:08:47;;;;;;;;;9.00;9.00;;;;;24.36;47.90;101326.75;4905720;28;45422;-72
2021/07/16 02:11:13;;;;;;;;;13.75;8.25;;;;;24.33;48.16;101318.88;4905183;28;45246;-71
2021/07/16 02:13:38;;;;;;;;;11.75;11.00;;;;;24.37;48.24;101323.16;4921360;28;45954;-71
2021/07/16 02:16:04;;;;;;;;;13.00;9.50;;;;;24.37;47.94;101317.81;4921288;28;45318;-71
2021/07/16 02:18:29;;;;;;;;;13.25;11.00;;;;;24.39;47.92;101322.16;4905257;28;46123;-70
2021/07/16 02:20:55;;;;;;;;;12.25;11.00;;;;;24.39;48.50;101318.63;4921828;28;60841;-71
2021/07/16 02:23:22;;;;;;;;;11.25;9.25;;;;;24.39;47.91;101314.16;4921454;28;45546;-71
2021/07/16 02:25:48;;;;;;;;;11.00;9.50;;;;;24.39;48.21;101316.81;4905174;28;45406;-71
2021/07/16 02:28:25;;;;;;;;;11.75;10.25;;;;;24.39;48.12;101308.81;4905113;28;45917;-71
2021/07/16 02:30:52;;;;;;;;;13.00;10.50;;;;;24.37;48.03;101299.13;4906204;28;45379;-71
2021/07/16 02:33:17;;;;;;;;;12.00;11.00;;;;;24.39;47.98;101307.94;4905368;28;45188;-71
2021/07/16 02:35:44;;;;;;;;;10.75;10.75;;;;;24.36;48.29;101308.06;4889337;28;45264;-71
2021/07/16 02:38:09;;;;;;;;;9.00;9.00;;;;;24.33;48.61;101309.06;4905288;28;46708;-71
2021/07/16 02:40:35;;;;;;;;;12.00;10.75;;;;;24.36;48.61;101318.75;4888953;28;51407;-70
2021/07/16 02:43:00;;;;;;;;;12.00;10.25;;;;;24.34;48.32;101301.94;4905226;28;45430;-71
2021/07/16 02:45:26;;;;;;;;;7.50;7.00;;;;;24.35;48.21;101311.69;4904973;28;45385;-71
2021/07/16 02:47:51;;;;;;;;;11.50;9.25;;;;;24.33;48.34;101310.88;4904470;28;59888;-71
2021/07/16 02:50:40;;;;;;;;;9.00;9.00;;;;;24.34;48.46;101320.63;4905043;28;45438;-71
2021/07/16 02:53:06;;;;;;;;;12.75;9.50;;;;;24.32;48.59;101312.63;4908507;28;45314;-71
2021/07/16 02:55:32;;;;;;;;;12.00;10.00;;;;;24.35;49.05;101307.22;4904929;28;45270;-71
2021/07/16 02:57:57;;;;;;;;;11.00;10.25;;;;;24.35;48.79;101319.69;4888939;28;46966;-71
2021/07/16 03:00:24;;;;;;;;;12.75;10.75;;;;;24.33;49.03;101314.41;4905168;28;45181;-71
2021/07/16 03:02:50;;;;;;;;;9.50;9.25;;;;;24.31;48.67;101313.53;4889418;28;45364;-71
2021/07/16 03:05:18;;;;;;;;;10.25;8.75;;;;;24.33;48.73;101316.22;4905038;28;45386;-71
2021/07/16 03:07:43;;;;;;;;;9.75;9.25;;;;;24.29;48.69;101318.06;4904676;28;48128;-70
2021/07/16 03:10:15;;;;;;;;;9.50;8.50;;;;;24.31;48.77;101323.34;4907383;28;45321;-71
2021/07/16 03:12:40;;;;;;;;;10.00;10.00;;;;;24.27;49.16;101308.41;4939779;28;45371;-71
2021/07/16 03:15:10;;;;;;;;;10.00;10.00;;;;;24.28;48.90;101312.81;4908206;28;45412;-71
2021/07/16 03:17:37;;;;;;;;;12.75;9.75;;;;;24.28;48.52;101318.13;4892626;28;47099;-71
2021/07/16 03:20:14;;;;;;;;;10.50;9.00;;;;;24.24;49.21;101318.25;4924141;28;45272;-70
2021/07/16 03:22:39;;;;;;;;;10.00;10.00;;;;;24.22;49.50;101322.75;4909278;28;45270;-71
2021/07/16 03:25:07;;;;;;;;;8.50;8.50;;;;;24.22;49.26;101325.44;4891771;28;54196;-71
2021/07/16 03:27:32;;;;;;;;;10.50;9.00;;;;;24.23;49.44;101316.50;4935951;28;46372;-71
2021/07/16 03:29:57;;;;;;;;;8.75;8.75;;;;;24.21;49.18;101323.69;4907552;28;52695;-71
2021/07/16 03:32:23;;;;;;;;;11.25;10.50;;;;;24.22;48.77;101327.22;4896654;28;48189;-71
2021/07/16 03:34:48;;;;;;;;;11.50;9.75;;;;;24.22;48.83;101316.56;4915348;28;55720;-71
2021/07/16 03:37:14;;;;;;;;;9.75;9.75;;;;;24.15;49.30;101315.94;4923350;28;47127;-71
2021/07/16 03:39:39;;;;;;;;;11.50;11.25;;;;;24.19;49.54;101322.91;4922788;28;69075;-70
2021/07/16 03:42:05;;;;;;;;;10.75;9.75;;;;;24.19;49.82;101330.03;4907587;28;45454;-72
2021/07/16 03:44:31;;;;;;;;;10.25;9.25;;;;;24.17;49.33;101323.88;4891592;28;45534;-70
2021/07/16 03:46:58;;;;;;;;;8.00;8.00;;;;;24.21;49.19;101320.16;4907367;28;46298;-71
2021/07/16 03:49:27;;;;;;;;;6.50;6.50;;;;;24.17;49.19;101316.75;4892372;28;45687;-70
2021/07/16 03:51:53;;;;;;;;;9.00;8.50;;;;;24.16;49.14;101323.03;4929198;28;45644;-71
2021/07/16 03:54:19;;;;;;;;;7.50;7.50;;;;;24.17;49.30;101335.44;4907530;28;45452;-71
2021/07/16 03:56:44;;;;;;;;;9.75;7.25;;;;;24.17;49.26;101326.56;4907048;28;45403;-71
2021/07/16 03:59:09;;;;;;;;;8.00;7.00;;;;;24.13;49.45;101320.44;4922316;28;67050;-71
2021/07/16 04:01:35;;;;;;;;;11.50;9.00;;;;;24.13;49.55;101316.91;4922788;28;53150;-71
2021/07/16 04:04:00;;;;;;;;;6.75;6.75;;;;;24.15;49.31;101325.72;4938691;28;62182;-71
2021/07/16 04:06:25;;;;;;;;;6.75;6.75;;;;;24.16;49.34;101323.03;4906881;28;55788;-71
2021/07/16 04:08:59;;;;;;;;;8.75;8.00;;;;;24.15;49.44;101323.94;4923279;28;45786;-71
2021/07/16 04:11:25;;;;;;;;;9.00;9.00;;;;;24.15;49.21;101315.06;4923196;28;45466;-71
2021/07/16 04:13:50;;;;;;;;;7.75;7.00;;;;;24.14;49.77;101322.19;4922934;28;45476;-71
2021/07/16 04:16:16;;;;;;;;;8.00;7.00;;;;;24.14;49.99;101319.50;4922986;28;45240;-71
2021/07/16 04:18:41;;;;;;;;;8.00;7.75;;;;;24.12;50.00;101321.38;4906500;28;64483;-71
2021/07/16 04:21:06;;;;;;;;;10.25;7.00;;;;;24.13;49.42;101331.13;4922876;28;45829;-71
2021/07/16 04:23:32;;;;;;;;;8.25;8.00;;;;;24.09;49.50;101329.50;4906556;28;58574;-71
2021/07/16 04:25:57;;;;;;;;;11.25;8.75;;;;;24.08;49.71;101327.78;4938381;28;48320;-71
2021/07/16 04:28:23;;;;;;;;;8.50;8.50;;;;;24.08;50.35;101326.91;4906589;28;55966;-71
2021/07/16 04:30:48;;;;;;;;;9.00;9.00;;;;;24.10;50.35;101328.56;4906645;28;54057;-71
2021/07/16 04:33:14;;;;;;;;;8.75;7.75;;;;;24.10;50.04;101331.25;4906898;28;45502;-71
2021/07/16 04:35:40;;;;;;;;;8.75;8.75;;;;;24.08;50.41;101334.91;4906634;28;46130;-71
2021/07/16 04:38:05;;;;;;;;;8.75;8.75;;;;;24.09;49.95;101334.84;4922729;28;45496;-71
2021/07/16 04:40:32;;;;;;;;;8.25;7.00;;;;;24.08;50.15;101334.91;4906599;28;45361;-71
2021/07/16 04:42:57;;;;;;;;;8.50;8.00;;;;;24.08;50.04;101334.91;4907008;28;45391;-71
2021/07/16 04:45:23;;;;;;;;;8.00;6.75;;;;;24.05;50.28;101335.88;4889258;28;64949;-71
2021/07/16 04:47:48;;;;;;;;;11.00;10.00;;;;;24.02;50.04;101330.66;4889647;28;45319;-71
2021/07/16 04:50:14;;;;;;;;;9.25;8.50;;;;;24.03;50.80;101332.38;4921396;28;45429;-71
2021/07/16 04:52:41;;;;;;;;;7.75;6.00;;;;;24.01;50.36;101328.91;4910281;28;45325;-71
2021/07/16 04:55:06;;;;;;;;;7.25;7.00;;;;;24.00;50.45;101340.53;4905218;28;45311;-71
2021/07/16 04:57:32;;;;;;;;;7.50;7.50;;;;;23.97;50.64;101332.59;4905009;28;45398;-71
2021/07/16 04:59:57;;;;;;;;;9.00;7.75;;;;;24.03;50.70;101340.41;4921177;28;45188;-71
2021/07/16 05:02:23;;;;;;;;;6.25;6.00;;;;;24.05;50.29;101343.00;4888963;28;56982;-71
2021/07/16 05:04:49;;;;;;;;;8.00;6.00;;;;;24.04;50.71;101347.47;4933216;28;58270;-71
2021/07/16 05:07:14;;;;;;;;;8.25;6.75;;;;;24.00;50.47;101331.66;4913063;28;45282;-71
2021/07/16 05:09:40;;;;;;;;;8.00;6.25;;;;;24.00;50.17;101337.84;4889558;28;45496;-71
2021/07/16 05:12:05;;;;;;;;;8.75;6.75;;;;;24.03;50.10;101343.06;4888899;28;48363;-71
2021/07/16 05:14:31;;;;;;;;;8.00;7.50;;;;;23.88;50.42;101316.97;4904518;28;47132;-71
2021/07/16 05:16:56;;;;;;;;;8.75;7.75;;;;;23.93;50.31;101337.19;4904873;28;45597;-71
2021/07/16 05:19:22;;;;;;;;;8.25;8.25;;;;;23.96;50.13;101337.06;4904660;28;47339;-71
2021/07/16 05:21:47;;;;;;;;;8.00;8.00;;;;;23.94;50.37;101349.59;4905077;28;45379;-71
2021/07/16 05:24:12;;;;;;;;;8.25;8.25;;;;;23.95;50.28;101346.00;4920035;28;58675;-72
2021/07/16 05:26:38;;;;;;;;;9.25;7.25;;;;;23.92;50.22;101346.13;4920468;28;45417;-70
2021/07/16 05:29:04;;;;;;;;;9.00;7.25;;;;;23.96;50.17;101350.41;4920382;28;45442;-70
2021/07/16 05:31:30;;;;;;;;;7.25;7.00;;;;;23.96;50.56;101362.88;4904506;28;45448;-70
2021/07/16 05:33:55;;;;;;;;;9.00;7.00;;;;;23.94;50.30;101343.41;4888220;28;54541;-70
2021/07/16 05:36:20;;;;;;;;;7.75;6.00;;;;;23.96;50.40;101355.75;4904204;28;58442;-70
2021/07/16 05:38:46;;;;;;;;;8.00;8.00;;;;;23.98;50.77;101350.38;4920363;28;45204;-72
2021/07/16 05:41:11;;;;;;;;;6.75;6.25;;;;;23.97;51.13;101354.81;4920312;28;45322;-70
2021/07/16 05:43:37;;;;;;;;;7.75;7.75;;;;;24.01;50.82;101357.38;4888039;28;53144;-74
2021/07/16 05:46:02;;;;;;;;;7.25;6.50;;;;;24.00;50.20;101358.31;4882956;28;1163366;-70
2021/07/16 05:48:28;;;;;;;;;8.25;8.25;;;;;23.96;50.77;101363.75;4921629;28;45264;-70
2021/07/16 05:50:53;;;;;;;;;9.00;8.50;;;;;23.84;50.56;101352.66;4908414;28;45530;-70
2021/07/16 05:53:18;;;;;;;;;10.00;8.50;;;;;23.95;51.64;101363.81;4906902;28;45275;-70
2021/07/16 05:55:44;;;;;;;;;14.50;12.50;;;;;23.98;53.61;101358.38;4904621;28;67046;-71
2021/07/16 05:58:09;;;;;;;;;10.50;9.25;;;;;24.04;54.15;101360.78;4905595;28;45244;-69
2021/07/16 06:00:35;;;;;;;;;8.00;7.75;;;;;24.15;53.28;101374.63;4905164;28;63380;-72
2021/07/16 06:03:01;;;;;;;;;9.00;8.00;;;;;24.24;54.06;101378.75;4889388;28;47615;-67
2021/07/16 06:05:26;;;;;;;;;8.50;8.50;;;;;24.35;54.84;101381.03;4921590;28;45414;-70
2021/07/16 06:07:52;;;;;;;;;9.25;9.25;;;;;24.45;56.28;101377.09;4905510;28;45439;-69
2021/07/16 06:10:17;;;;;;;;;10.00;10.00;;;;;24.51;54.22;101387.53;4920604;28;66055;-69
2021/07/16 06:12:43;;;;;;;;;9.00;9.00;;;;;24.58;54.50;101386.34;4920881;28;46755;-70
2021/07/16 06:15:10;;;;;;;;;7.50;7.25;;;;;24.60;54.31;101380.97;4905796;28;45394;-69
2021/07/16 06:17:36;;;;;;;;;7.50;7.50;;;;;24.63;53.05;101384.38;4905543;28;45265;-69
2021/07/16 06:20:01;;;;;;;;;10.00;7.25;;;;;24.64;53.08;101386.13;4905529;28;45546;-68
2021/07/16 06:22:27;;;;;;;;;10.00;8.75;;;;;24.63;51.95;101392.38;4920959;28;47181;-69
2021/07/16 06:24:52;;;;;;;;;11.75;9.75;;;;;24.59;51.83;101393.44;4921212;28;45472;-69
2021/07/16 06:27:18;;;;;;;;;10.00;8.25;;;;;24.52;51.39;101389.28;4905061;28;45301;-69
2021/07/16 06:29:43;;;;;;;;;8.75;7.00;;;;;24.52;51.82;101402.63;4920379;28;62084;-70
2021/07/16 06:32:08;;;;;;;;;6.25;6.25;;;;;24.52;52.08;101402.63;4904559;28;62415;-70
2021/07/16 06:34:34;;;;;;;;;10.00;7.25;;;;;24.52;51.39;101402.63;4920371;28;63536;-69
2021/07/16 06:36:59;;;;;;;;;8.00;6.50;;;;;24.50;50.94;101413.34;4888812;28;58644;-69
2021/07/16 06:39:25;;;;;;;;;7.00;7.00;;;;;24.45;50.74;101406.44;4921051;28;45485;-70
2021/07/16 06:41:51;;;;;;;;;8.00;8.00;;;;;24.42;51.58;101409.25;4889085;28;47995;-70
2021/07/16 06:44:16;;;;;;;;;6.50;6.00;;;;;24.38;50.70;101405.78;4921202;28;66179;-70
2021/07/16 06:46:42;;;;;;;;;5.75;5.00;;;;;24.31;49.73;101412.25;4924328;28;47018;-70
2021/07/16 06:49:07;;;;;;;;;4.75;4.75;;;;;24.23;49.72;101417.84;4908532;28;45437;-70
2021/07/16 06:51:33;;;;;;;;;5.00;5.00;;;;;24.13;50.32;101424.47;4913803;28;53006;-69
2021/07/16 06:54:02;;;;;;;;;6.50;5.75;;;;;24.10;49.78;101419.25;4924225;28;45779;-71
2021/07/16 06:56:27;;;;;;;;;4.25;4.25;;;;;24.04;50.06;101422.13;4924128;28;45466;-73
2021/07/16 06:58:53;;;;;;;;;5.00;5.00;;;;;23.97;49.85;101421.47;4908211;28;45294;-70
2021/07/16 07:01:19;;;;;;;;;4.75;4.00;;;;;23.97;49.93;101417.94;4892418;28;47095;-69
2021/07/16 07:03:44;;;;;;;;;4.00;4.00;;;;;24.02;49.73;101428.44;4918908;28;45418;-70
2021/07/16 07:06:10;;;;;;;;;4.50;4.50;;;;;23.96;50.01;101419.72;4903416;28;56135;-69
2021/07/16 07:08:35;;;;;;;;;5.25;5.25;;;;;23.98;50.54;101422.38;4930388;28;57801;-69
2021/07/16 07:11:01;;;;;;;;;4.75;4.75;;;;;23.96;49.97;101427.72;4923402;28;45542;-71
2021/07/16 07:13:26;;;;;;;;;5.00;5.00;;;;;23.98;49.76;101430.38;4890590;28;68531;-71
2021/07/16 07:15:51;;;;;;;;;9.00;5.00;;;;;23.97;49.62;101445.47;4907479;28;54630;-71
2021/07/16 07:18:17;;;;;;;;;5.25;5.25;;;;;23.94;49.58;101434.91;4899119;28;46304;-70
2021/07/16 07:20:42;;;;;;;;;3.50;3.50;;;;;23.94;50.20;101444.72;4923103;28;61342;-70
2021/07/16 07:23:08;;;;;;;;;7.00;5.50;;;;;23.92;49.44;101435.91;4891361;28;56197;-69
2021/07/16 07:25:33;;;;;;;;;4.25;3.25;;;;;23.83;49.73;101420.25;4907118;28;49203;-70
2021/07/16 07:27:58;;;;;;;;;6.75;4.75;;;;;23.88;50.26;101443.13;4888017;28;45762;-70
2021/07/16 07:30:24;;;;;;;;;3.00;3.00;;;;;23.93;49.63;101430.53;4914747;28;45689;-69
2021/07/16 07:32:49;;;;;;;;;3.00;3.00;;;;;23.86;49.03;101439.66;4905524;28;64687;-68
2021/07/16 07:35:15;;;;;;;;;5.00;2.75;;;;;23.81;49.30;101438.09;4891939;28;45390;-72
2021/07/16 07:37:40;;;;;;;;;6.75;5.00;;;;;23.82;49.79;101439.81;4907459;28;45416;-70
2021/07/16 07:40:08;;;;;;;;;4.75;4.00;;;;;23.86;50.11;101449.44;4906690;28;45702;-71
2021/07/16 07:42:34;;;;;;;;;4.00;3.00;;;;;23.91;49.66;101439.50;4891780;28;45336;-72
2021/07/16 07:44:59;;;;;;;;;3.25;3.25;;;;;23.96;49.21;101437.53;4922687;28;56484;-71
2021/07/16 07:47:29;;;;;;;;;2.25;2.25;;;;;24.01;49.40;101440.91;4891506;28;50214;-75
2021/07/16 07:49:55;;;;;;;;;4.00;2.75;;;;;24.05;48.70;101431.00;4938965;28;47389;-72
2021/07/16 07:52:21;;;;;;;;;1.75;1.75;;;;;24.06;49.12;101444.28;4904571;28;46488;-71
2021/07/16 07:54:47;;;;;;;;;2.75;2.00;;;;;24.07;48.07;101448.72;4904967;28;45425;-71
2021/07/16 07:57:12;;;;;;;;;4.00;3.00;;;;;24.07;48.31;101450.50;4922523;28;45310;-71
2021/07/16 07:59:38;;;;;;;;;2.00;2.00;;;;;24.07;48.16;101443.38;4922387;28;48201;-72
2021/07/16 08:02:03;;;;;;;;;3.00;2.25;;;;;24.09;47.99;101452.19;4922507;28;45424;-71
2021/07/16 08:04:28;;;;;;;;;4.00;3.00;;;;;24.10;47.97;101451.25;4922700;28;45390;-71
2021/07/16 08:06:54;;;;;;;;;2.75;2.25;;;;;24.06;47.78;101452.28;4907113;28;45256;-72
2021/07/16 08:09:19;;;;;;;;;1.25;1.25;;;;;24.08;47.78;101468.25;4890585;28;58344;-71
2021/07/16 08:11:45;;;;;;;;;2.75;2.50;;;;;24.08;47.21;101457.56;4906530;28;46030;-71
2021/07/16 08:14:10;;;;;;;;;3.00;2.00;;;;;24.08;47.55;101469.13;4905976;28;56865;-70
2021/07/16 08:16:35;;;;;;;;;2.75;1.00;;;;;24.08;47.46;101476.25;4906710;28;51839;-72
2021/07/16 08:19:01;;;;;;;;;2.75;2.75;;;;;24.05;47.07;101469.19;4922655;28;47302;-71
2021/07/16 08:21:26;;;;;;;;;2.75;1.25;;;;;24.02;47.02;101472.00;4906653;28;45505;-72
2021/07/16 08:23:52;;;;;;;;;2.00;2.00;;;;;24.05;47.33;101474.53;4899293;28;45396;-72
2021/07/16 08:26:18;;;;;;;;;2.00;2.00;;;;;24.07;47.53;101472.72;4921729;28;45568;-72
2021/07/16 08:28:44;;;;;;;;;2.00;2.00;;;;;24.09;47.06;101469.97;4922140;28;45464;-72
2021/07/16 08:31:09;;;;;;;;;3.00;1.75;;;;;24.09;47.30;101470.84;4887228;29;45389;-72
2021/07/16 08:33:35;;;;;;;;;2.75;1.75;;;;;24.07;47.02;101470.03;4906791;28;45938;-71
2021/07/16 08:36:00;;;;;;;;;2.00;1.00;;;;;24.05;47.00;101481.66;4921666;28;64344;-70
2021/07/16 08:38:25;;;;;;;;;1.00;1.00;;;;;24.04;47.04;101480.78;4921764;28;47081;-70
2021/07/16 08:40:51;;;;;;;;;2.25;2.00;;;;;24.00;47.01;101471.19;4905200;28;67665;-70
2021/07/16 08:43:17;;;;;;;;;2.00;2.00;;;;;24.03;46.85;101478.19;4905690;28;47985;-70
2021/07/16 08:45:45;;;;;;;;;1.00;1.00;;;;;24.02;46.88;101473.78;4906387;28;45445;-71
2021/07/16 08:48:10;;;;;;;;;2.00;2.00;;;;;24.03;46.71;101471.06;4890334;28;47315;-71
2021/07/16 08:50:36;;;;;;;;;1.00;1.00;;;;;24.00;47.22;101481.84;4897127;28;61214;-71
2021/07/16 08:53:02;;;;;;;;;2.25;2.25;;;;;24.02;46.99;101482.66;4922615;28;45866;-72
2021/07/16 08:55:32;;;;;;;;;3.50;3.00;;;;;24.01;47.14;101483.59;4921360;28;45395;-71
2021/07/16 08:57:58;;;;;;;;;1.00;1.00;;;;;23.98;47.13;101489.03;4922135;28;46280;-71
2021/07/16 09:00:24;;;;;;;;;2.00;2.00;;;;;23.97;47.35;101487.25;4921862;28;45735;-70
2021/07/16 09:02:58;;;;;;;;;2.00;2.00;;;;;23.92;47.63;101479.44;4890286;28;45326;-71
2021/07/16 09:05:36;;;;;;;;;2.25;2.00;;;;;23.91;47.98;101487.50;4906805;28;45342;-72
2021/07/16 09:08:01;;;;;;;;;3.25;2.00;;;;;23.94;47.30;101490.03;4895040;28;46746;-70
2021/07/16 09:10:30;;;;;;;;;3.50;3.50;;;;;23.94;47.89;101487.38;4921323;28;45394;-71
2021/07/16 09:13:03;;;;;;;;;3.50;3.50;;;;;23.96;47.77;101502.38;4904777;28;45369;-70
2021/07/16 09:15:28;;;;;;;;;3.75;3.00;;;;;23.94;47.69;101492.72;4888166;28;45617;-71
2021/07/16 09:18:14;;;;;;;;;4.00;4.00;;;;;23.96;47.31;101496.19;4919262;28;48087;-71
2021/07/16 09:20:39;;;;;;;;;2.50;2.50;;;;;23.94;47.70;101493.59;4905569;28;45470;-71
2021/07/16 09:23:09;;;;;;;;;4.00;3.25;;;;;23.91;47.35;101498.16;4898616;28;45431;-71
2021/07/16 09:25:36;;;;;;;;;4.50;3.25;;;;;23.81;47.34;101486.94;4921310;28;45449;-71
2021/07/16 09:28:01;;;;;;;;;3.50;3.00;;;;;23.88;48.00;101499.13;4922373;28;46245;-71
2021/07/16 09:30:27;;;;;;;;;7.25;5.00;;;;;23.86;47.76;101495.63;4922232;28;45433;-72
2021/07/16 09:32:57;;;;;;;;;4.75;4.75;;;;;23.79;47.86;101498.56;4918204;28;45418;-71
2021/07/16 09:35:25;;;;;;;;;4.75;4.25;;;;;23.79;48.34;101496.75;4902714;28;45596;-72
2021/07/16 09:38:03;;;;;;;;;4.50;3.50;;;;;23.77;48.13;101490.63;4921229;28;45400;-72
2021/07/16 09:40:39;;;;;;;;;6.00;5.50;;;;;23.72;48.04;101503.25;4921270;28;45452;-72
2021/07/16 09:43:10;;;;;;;;;4.00;4.00;;;;;23.72;48.24;101502.34;4905439;28;45551;-71
2021/07/16 09:45:39;;;;;;;;;5.00;5.00;;;;;23.69;48.13;101506.84;4931318;28;45366;-72
2021/07/16 09:48:18;;;;;;;;;7.50;6.00;;;;;23.72;48.00;101518.34;4926326;28;45490;-74
2021/07/16 09:50:43;;;;;;;;;6.50;5.75;;;;;23.69;48.06;101513.97;4923993;28;45322;-72
2021/07/16 09:53:17;;;;;;;;;5.00;5.00;;;;;23.71;48.10;101517.47;4905637;28;52292;-71
2021/07/16 09:55:43;;;;;;;;;5.00;4.50;;;;;23.71;47.67;101522.78;4888920;28;45422;-74
2021/07/16 09:58:27;;;;;;;;;5.50;5.00;;;;;23.65;47.90;101507.03;4905466;28;46261;-74
2021/07/16 10:00:53;;;;;;;;;5.25;5.25;;;;;23.69;47.90;101519.31;4880227;28;45620;-73
2021/07/16 10:03:19;;;;;;;;;6.25;4.50;;;;;23.67;47.57;101514.03;4902282;28;45636;-72
2021/07/16 10:05:44;;;;;;;;;4.00;4.00;;;;;23.66;48.15;101520.28;4920887;28;45413;-71
2021/07/16 10:08:09;;;;;;;;;4.25;4.00;;;;;23.66;48.05;101522.97;4919988;28;64268;-72
2021/07/16 10:10:35;;;;;;;;;5.25;5.25;;;;;23.64;47.94;101516.81;4904507;28;62964;-72
2021/07/16 10:13:00;;;;;;;;;5.25;4.00;;;;;23.61;47.73;101508.91;4889409;28;57097;-71
2021/07/16 10:15:26;;;;;;;;;4.00;3.75;;;;;23.64;48.28;101519.47;4887159;28;45572;-75
2021/07/16 10:17:52;;;;;;;;;4.50;3.25;;;;;23.64;48.37;101521.28;4905300;28;46997;-72
2021/07/16 10:20:18;;;;;;;;;4.00;3.75;;;;;23.63;47.79;101520.41;4920825;28;45379;-72
2021/07/16 10:22:44;;;;;;;;;5.00;5.00;;;;;23.66;48.00;101525.63;4920472;28;45496;-75
2021/07/16 10:25:11;;;;;;;;;4.00;4.00;;;;;23.61;48.11;101500.91;4904693;28;45447;-72
2021/07/16 10:27:40;;;;;;;;;5.75;5.50;;;;;23.64;48.37;101514.16;4920765;28;45212;-73
2021/07/16 10:30:09;;;;;;;;;7.00;6.00;;;;;23.68;47.56;101522.91;4889407;28;45479;-73
2021/07/16 10:32:43;;;;;;;;;7.50;6.50;;;;;23.69;47.62;101529.97;4921117;28;45307;-74
2021/07/16 10:35:18;;;;;;;;;7.00;5.25;;;;;23.66;48.11;101533.63;4920712;28;45464;-72
2021/07/16 10:37:44;;;;;;;;;4.75;4.75;;;;;23.67;48.14;101531.81;4922113;28;46367;-72
2021/07/16 10:40:35;;;;;;;;;6.00;6.00;;;;;23.65;47.88;101533.69;4921714;28;45328;-71
2021/07/16 10:43:01;;;;;;;;;5.25;4.00;;;;;23.63;47.99;101538.16;4906087;28;45411;-72
2021/07/16 10:45:31;;;;;;;;;5.75;5.00;;;;;23.63;48.21;101544.41;4921643;28;45450;-72
2021/07/16 10:48:12;;;;;;;;;6.00;5.75;;;;;23.62;47.97;101547.09;4921809;28;46007;-72
2021/07/16 10:50:38;;;;;;;;;8.00;6.00;;;;;23.60;47.39;101547.13;4905777;28;45283;-71
2021/07/16 10:53:04;;;;;;;;;8.00;8.00;;;;;23.58;47.95;101543.63;4926702;28;45340;-72
2021/07/16 10:55:33;;;;;;;;;8.00;7.25;;;;;23.61;47.88;101559.53;4921448;28;45422;-72
2021/07/16 10:57:59;;;;;;;;;8.50;6.50;;;;;23.61;47.81;101556.00;4921825;28;45343;-72
2021/07/16 11:00:36;;;;;;;;;7.25;7.25;;;;;23.61;47.52;101558.66;4904761;28;45267;-72
2021/07/16 11:03:12;;;;;;;;;8.75;7.00;;;;;23.58;48.00;101556.94;4921930;28;45243;-71
2021/07/16 11:05:44;;;;;;;;;10.75;9.50;;;;;23.58;47.65;101562.28;4920469;28;45472;-72
2021/07/16 11:08:35;;;;;;;;;10.75;8.75;;;;;23.56;47.20;101557.94;4921733;28;46077;-72
2021/07/16 11:11:01;;;;;;;;;7.75;7.75;;;;;23.55;47.53;101565.06;4921510;28;45476;-72
2021/07/16 11:13:34;;;;;;;;;10.25;8.25;;;;;23.53;47.19;101561.53;4920538;28;45287;-72
2021/07/16 11:16:00;;;;;;;;;8.50;8.50;;;;;23.52;47.00;101567.78;4920173;28;45474;-73
2021/07/16 11:18:26;;;;;;;;;11.00;9.75;;;;;23.54;47.15;101565.94;4920286;28;46052;-72
2021/07/16 11:20:52;;;;;;;;;10.50;10.25;;;;;23.52;47.65;101561.59;4888810;28;45265;-71